Aérodrome :
LOGIN :

S'inscrire | Disclaimer

   EN    FR    IT 

 










Légende :    VFR   VFR Marginal   IFR   IFR Intensif   IFR Très Intensif
Visi : 
Plafond : 
>= 8 km
>= 3000ft
5 à 8 km
1000 à 3000 ft
1500m à 5 km
500 à 1000 ft
800 à 1500m
200 à 500 ft
< 800m
< 200 ft
Symboles :   Orages  Brouillard  Fortes neiges  Fortes précipitations  Vent > 20 kt
SIGMETs :   Divers  Orages  Givrage  Turbulence  Onde Orograph.  Cendres Volcan.







- Altitude de l'aérodrome : 141 ft
- Code IATA : SKS


EKSP - Srydstrup Vojens

DERNIER METAR :
  • 211920Z 01001KT 9999 MIFG NSC 12/11 Q1018 RMK FEW200

METARs EXPIRÉS :
  • 211850Z 27001KT 9999 MIFG NSC 12/12 Q1019 RMK FEW230
  • 211820Z 31001KT 9999 MIFG NSC 13/12 Q1019 RMK FEW230
  • 211750Z 26004KT CAVOK 14/13 Q1019 RMK FEW230
  • 211720Z 27005KT CAVOK 15/13 Q1019
  • 211650Z 26004KT 230V300 CAVOK 17/13 Q1019

TAF TAF EKSP
Valide du 21 à 18h jusqu'au 22 à 18h UTC


211720Z 2118/2218 VRB05KT 9999 FEW200
TEMPO 2121/2203 0500 FG BKN002
BECMG 2200/2203 14008KT
BECMG 2210/2213 12014KT
Pas de NOTAMs connus pour ce terrain.



MET'MAP, la Météo Aéronautique d'un coup d'oeil ! - Copyright ORBIFLY Décembre 2007 - Disclaimer

ORBIFLY MET'MAP TEAM :

Programmation & Développement : Alexandra Zaïnal
Conception & Développement : Baudouin d'Aumeries
Co-Programmation & Développement : Marc-Olivier Méhu
Soutien technique & logistique : Manuel Goepfert

Contact : metmap@orbifly.com




SOURCES & CREDITS :

   NOAA